Time;durP1;ratioP1;P1;durP2;ratioP2;P2;SDS_P1;SDS_P2;PMS_P1;PMS_P2;Temp;Humidity;BMP_temperature;BMP_pressure;BME280_temperature;BME280_humidity;BME280_pressure;Samples;Min_cycle;Max_cycle;Signal;HPM_P1;HPM_P2
2021/10/22 00:01:45;;;;;;;4.07;1.60;;;;;;;5.52;78.86;97411.38;6118208;29;20268;-73
2021/10/22 00:04:48;;;;;;;2.90;1.37;;;;;;;5.54;79.35;97414.72;6117705;29;20289;-74
2021/10/22 00:07:50;;;;;;;3.50;1.20;;;;;;;5.54;79.04;97405.09;6134441;29;20703;-73
2021/10/22 00:10:52;;;;;;;2.97;1.43;;;;;;;5.55;79.63;97408.56;6117839;29;20191;-74
2021/10/22 00:13:54;;;;;;;2.37;1.17;;;;;;;5.52;79.54;97404.34;6136759;28;20232;-72
2021/10/22 00:16:56;;;;;;;3.87;1.17;;;;;;;5.52;79.67;97411.38;6122443;29;20200;-74
2021/10/22 00:19:58;;;;;;;2.80;1.37;;;;;;;5.54;79.62;97407.72;6115539;29;20191;-74
2021/10/22 00:23:03;;;;;;;2.20;1.00;;;;;;;5.57;79.92;97420.63;6122165;29;20265;-73
2021/10/22 00:26:05;;;;;;;2.43;1.07;;;;;;;5.61;79.53;97412.53;6121819;29;20194;-74
2021/10/22 00:29:07;;;;;;;3.07;1.10;;;;;;;5.66;79.93;97406.09;6139625;29;20206;-74
2021/10/22 00:32:09;;;;;;;1.30;0.80;;;;;;;5.79;79.58;97416.63;6139211;29;20211;-74
2021/10/22 00:35:12;;;;;;;2.90;0.87;;;;;;;5.90;79.51;97414.97;6139219;29;20734;-73
2021/10/22 00:38:14;;;;;;;3.17;0.87;;;;;;;6.08;78.66;97414.72;6113821;29;20805;-74
2021/10/22 00:41:17;;;;;;;3.90;1.30;;;;;;;6.22;77.90;97415.47;6138743;29;20857;-72
2021/10/22 00:44:19;;;;;;;3.20;1.10;;;;;;;6.37;78.04;97418.00;6121499;29;20206;-74
2021/10/22 00:47:21;;;;;;;2.83;1.20;;;;;;;6.45;77.01;97413.91;6121716;29;20242;-74
2021/10/22 00:50:24;;;;;;;2.13;0.93;;;;;;;6.56;76.60;97427.13;6121310;29;20199;-73
2021/10/22 00:53:27;;;;;;;4.50;0.87;;;;;;;6.67;76.28;97434.28;6138766;29;20203;-73
2021/10/22 00:56:29;;;;;;;2.87;1.33;;;;;;;6.72;76.21;97421.66;6121070;29;20208;-73
2021/10/22 00:59:33;;;;;;;3.03;1.30;;;;;;;6.76;76.07;97436.25;6138358;29;20710;-73
2021/10/22 01:02:37;;;;;;;3.27;1.33;;;;;;;6.74;75.92;97440.78;6120845;29;20682;-74
2021/10/22 01:05:39;;;;;;;4.20;1.13;;;;;;;6.77;76.05;97437.94;6121211;29;20230;-74
2021/10/22 01:08:43;;;;;;;3.87;1.10;;;;;;;6.82;75.72;97442.84;6137957;29;20237;-74
2021/10/22 01:11:45;;;;;;;2.60;1.17;;;;;;;6.85;75.63;97440.88;6121182;29;20702;-73
2021/10/22 01:14:47;;;;;;;1.87;0.97;;;;;;;6.85;75.44;97440.88;6138216;29;20229;-73
2021/10/22 01:17:49;;;;;;;6.97;1.10;;;;;;;6.85;75.52;97442.66;6138449;29;20360;-74
2021/10/22 01:21:02;;;;;;;2.50;1.07;;;;;;;6.97;74.85;97447.91;6116342;29;20203;-72
2021/10/22 01:24:04;;;;;;;3.00;0.83;;;;;;;7.18;74.46;97448.19;6137357;28;20531;-73
2021/10/22 01:27:06;;;;;;;2.23;1.10;;;;;;;7.37;73.95;97440.69;6136895;29;20191;-74
2021/10/22 01:30:11;;;;;;;3.03;0.70;;;;;;;7.64;72.83;97437.00;6120605;29;20256;-75
2021/10/22 01:33:20;;;;;;;2.00;0.70;;;;;;;7.85;71.31;97440.72;6136163;29;20306;-74
2021/10/22 01:36:23;;;;;;;3.50;0.90;;;;;;;8.46;68.61;97444.91;6112190;29;20202;-73
2021/10/22 01:39:25;;;;;;;2.60;0.77;;;;;;;8.60;68.73;97449.09;6105970;29;20652;-73
2021/10/22 01:42:28;;;;;;;1.30;0.40;;;;;;;8.67;68.21;97449.50;6120373;29;20190;-73
2021/10/22 01:45:30;;;;;;;1.70;0.57;;;;;;;8.65;68.48;97454.88;6137980;29;20493;-74
2021/10/22 01:48:32;;;;;;;1.87;0.80;;;;;;;8.62;69.56;97459.53;6137783;29;20476;-72
2021/10/22 01:51:34;;;;;;;5.13;0.90;;;;;;;8.57;69.68;97459.03;6136262;29;20226;-75
2021/10/22 01:54:36;;;;;;;1.80;0.70;;;;;;;8.67;67.91;97450.34;6120119;29;20231;-74
2021/10/22 01:57:38;;;;;;;6.83;1.30;;;;;;;9.11;65.55;97440.78;6120244;29;20297;-72
2021/10/22 02:00:40;;;;;;;3.13;0.80;;;;;;;9.36;64.59;97442.34;6119360;29;20225;-74
2021/10/22 02:03:43;;;;;;;1.60;0.80;;;;;;;9.45;64.41;97438.97;6119975;29;20273;-75
2021/10/22 02:06:48;;;;;;;1.93;0.63;;;;;;;9.63;62.63;97437.50;6137744;29;20285;-71
2021/10/22 02:09:50;;;;;;;3.63;0.90;;;;;;;9.70;61.96;97435.19;6136631;29;20245;-72
2021/10/22 02:12:52;;;;;;;2.30;1.00;;;;;;;9.78;62.45;97438.88;6137132;29;20233;-71
2021/10/22 02:15:54;;;;;;;2.93;0.63;;;;;;;9.85;61.95;97444.50;6119535;29;20701;-73
2021/10/22 02:18:56;;;;;;;3.03;0.90;;;;;;;9.92;61.12;97435.97;6131477;29;20203;-72
2021/10/22 02:21:59;;;;;;;2.13;0.90;;;;;;;9.97;61.11;97432.97;6130898;29;20187;-71
2021/10/22 02:25:01;;;;;;;4.37;0.70;;;;;;;9.95;61.67;97441.00;6136630;29;20198;-73
2021/10/22 02:28:03;;;;;;;1.93;0.73;;;;;;;9.94;61.20;97438.50;6136579;29;20202;-71
2021/10/22 02:31:05;;;;;;;4.03;1.00;;;;;;;9.92;61.24;97443.88;6136907;29;20487;-73
2021/10/22 02:34:07;;;;;;;1.23;0.70;;;;;;;9.92;61.39;97451.78;6136011;29;20395;-72
2021/10/22 02:37:09;;;;;;;3.00;0.90;;;;;;;9.71;62.53;97445.63;6105629;29;20206;-71
2021/10/22 02:40:15;;;;;;;2.33;0.60;;;;;;;9.57;63.86;97456.44;6136507;29;20317;-73
2021/10/22 02:43:17;;;;;;;1.67;0.70;;;;;;;9.44;64.26;97455.75;6136429;29;20205;-71
2021/10/22 02:46:19;;;;;;;2.40;1.10;;;;;;;9.39;64.28;97463.97;6118923;29;20210;-71
2021/10/22 02:49:21;;;;;;;3.13;0.80;;;;;;;9.45;63.74;97468.78;6118751;29;20209;-72
2021/10/22 02:52:23;;;;;;;1.57;0.70;;;;;;;9.30;64.91;97474.41;6119019;29;20240;-72
2021/10/22 02:55:25;;;;;;;2.63;1.10;;;;;;;9.10;65.76;97474.16;6118475;29;20197;-72
2021/10/22 02:58:27;;;;;;;2.83;0.90;;;;;;;9.14;65.14;97457.19;6136176;29;20201;-71
2021/10/22 03:01:30;;;;;;;4.30;1.20;;;;;;;8.95;65.76;97466.63;6135972;29;20202;-72
2021/10/22 03:04:32;;;;;;;2.33;0.73;;;;;;;8.58;67.24;97474.72;6118136;29;20267;-71
2021/10/22 03:07:34;;;;;;;1.63;1.00;;;;;;;8.29;68.70;97484.72;6134151;29;20229;-72
2021/10/22 03:10:36;;;;;;;3.47;0.70;;;;;;;8.05;70.14;97484.75;6135596;29;20191;-71
2021/10/22 03:13:38;;;;;;;1.43;0.70;;;;;;;7.83;70.65;97489.06;6117961;29;20207;-73
2021/10/22 03:16:42;;;;;;;2.90;0.90;;;;;;;7.60;71.37;97488.91;6118130;29;20206;-72
2021/10/22 03:19:44;;;;;;;1.20;0.67;;;;;;;7.43;71.54;97488.44;6122834;29;20193;-71
2021/10/22 03:22:47;;;;;;;1.53;0.80;;;;;;;7.24;72.44;97484.47;6118917;29;20198;-73
2021/10/22 03:25:49;;;;;;;2.07;0.83;;;;;;;7.08;73.38;97497.00;6135252;29;20895;-73
2021/10/22 03:28:51;;;;;;;1.97;0.90;;;;;;;6.89;73.92;97507.06;6135520;29;20199;-71
2021/10/22 03:31:53;;;;;;;2.90;1.10;;;;;;;6.76;74.65;97517.56;6133769;29;20513;-72
2021/10/22 03:34:55;;;;;;;4.33;1.00;;;;;;;6.63;74.52;97528.03;6117701;29;20400;-72
2021/10/22 03:37:57;;;;;;;5.27;1.30;;;;;;;6.57;74.52;97536.31;6133539;29;20755;-72
2021/10/22 03:40:59;;;;;;;2.30;1.17;;;;;;;6.54;75.23;97527.81;6135308;29;20836;-70
2021/10/22 03:44:01;;;;;;;1.40;0.80;;;;;;;6.50;74.99;97526.31;6135242;29;20644;-71
2021/10/22 03:47:05;;;;;;;1.87;0.90;;;;;;;6.47;75.13;97518.69;6134931;29;20574;-72
2021/10/22 03:50:07;;;;;;;1.93;1.10;;;;;;;6.44;75.56;97530.19;6138690;28;20198;-72
2021/10/22 03:53:10;;;;;;;4.27;1.53;;;;;;;6.43;76.46;97527.66;6139457;29;20754;-70
2021/10/22 03:56:12;;;;;;;1.20;0.90;;;;;;;6.40;76.56;97526.09;6122417;29;20198;-71
2021/10/22 03:59:17;;;;;;;2.60;0.80;;;;;;;6.34;76.29;97523.03;6139515;29;20424;-71
2021/10/22 04:02:19;;;;;;;2.93;1.13;;;;;;;6.22;76.97;97529.91;6139353;29;20233;-71
2021/10/22 04:05:22;;;;;;;2.10;0.90;;;;;;;6.18;77.24;97538.94;6139460;29;20253;-71
2021/10/22 04:08:24;;;;;;;4.97;0.83;;;;;;;6.15;77.52;97533.88;6139474;29;20228;-71
2021/10/22 04:11:27;;;;;;;2.40;0.80;;;;;;;6.09;77.67;97531.66;6133497;29;20666;-72
2021/10/22 04:14:28;;;;;;;2.53;1.40;;;;;;;6.05;78.20;97543.28;6121971;29;20279;-70
2021/10/22 04:17:31;;;;;;;2.10;0.70;;;;;;;5.98;77.80;97548.06;6122155;29;20394;-72
2021/10/22 04:20:33;;;;;;;1.70;0.80;;;;;;;5.91;78.41;97549.38;6123449;29;20665;-73
2021/10/22 04:23:35;;;;;;;3.07;0.90;;;;;;;5.87;78.97;97546.09;6139683;29;20196;-71
2021/10/22 04:26:36;;;;;;;2.33;0.93;;;;;;;5.82;78.96;97550.78;6139871;29;20198;-71
2021/10/22 04:29:39;;;;;;;3.37;0.80;;;;;;;5.76;78.64;97556.41;6139165;29;20234;-71
2021/10/22 04:32:41;;;;;;;2.07;1.07;;;;;;;5.74;78.79;97558.28;6138940;29;20210;-71
2021/10/22 04:35:43;;;;;;;3.83;1.00;;;;;;;5.72;79.06;97564.53;6107106;29;20412;-71
2021/10/22 04:42:05;;;;;;;6.37;1.47;;;;;;;5.89;78.70;97546.03;6121652;29;20505;-71
2021/10/22 04:45:09;;;;;;;0.87;0.80;;;;;;;6.03;79.00;97550.38;6138504;29;20703;-71
2021/10/22 04:48:12;;;;;;;2.97;0.70;;;;;;;6.18;78.54;97554.66;6121426;29;20199;-71
2021/10/22 04:51:15;;;;;;;4.93;1.23;;;;;;;6.31;78.48;97563.38;6138435;29;20265;-71
2021/10/22 04:54:17;;;;;;;2.17;0.90;;;;;;;6.40;78.84;97565.41;6120644;29;20214;-71
2021/10/22 04:57:18;;;;;;;2.57;0.90;;;;;;;6.50;78.08;97550.75;6139019;29;20197;-71
2021/10/22 05:00:21;;;;;;;1.53;0.80;;;;;;;6.64;78.39;97562.97;6119667;29;20223;-71
2021/10/22 05:03:23;;;;;;;2.27;1.40;;;;;;;6.81;78.53;97567.06;6121102;29;20773;-72
2021/10/22 05:06:25;;;;;;;2.40;0.90;;;;;;;6.99;78.12;97578.94;6120448;29;20887;-72
2021/10/22 05:09:28;;;;;;;3.03;1.20;;;;;;;7.13;78.03;97563.13;6120608;29;20227;-71
2021/10/22 05:12:29;;;;;;;1.10;0.90;;;;;;;7.22;78.07;97556.38;6120781;29;20208;-72
2021/10/22 05:15:32;;;;;;;2.77;1.10;;;;;;;7.58;76.30;97555.63;6137190;29;20191;-71
2021/10/22 05:18:34;;;;;;;2.60;0.87;;;;;;;7.96;75.88;97561.63;6136464;29;20187;-71
2021/10/22 05:21:35;;;;;;;1.67;1.00;;;;;;;8.20;74.82;97558.16;6134173;29;20363;-72
2021/10/22 05:24:37;;;;;;;4.77;1.33;;;;;;;8.31;74.05;97553.84;6138414;29;20195;-71
2021/10/22 05:27:40;;;;;;;1.30;0.73;;;;;;;8.34;73.82;97564.16;6137963;29;20681;-70
2021/10/22 05:30:42;;;;;;;3.53;0.90;;;;;;;8.38;74.09;97567.41;6120301;29;20639;-71
2021/10/22 05:33:44;;;;;;;3.37;0.90;;;;;;;8.45;73.88;97571.25;6137403;29;20449;-71
2021/10/22 05:36:47;;;;;;;2.60;0.70;;;;;;;8.58;73.56;97574.66;6130660;29;20198;-72
2021/10/22 05:39:50;;;;;;;2.27;0.90;;;;;;;8.73;71.87;97576.16;6137758;29;20797;-73
2021/10/22 05:42:52;;;;;;;1.70;0.60;;;;;;;8.81;72.25;97571.16;6137496;29;20678;-72
2021/10/22 05:45:53;;;;;;;3.57;0.80;;;;;;;8.81;72.61;97573.78;6137536;29;20273;-72
2021/10/22 05:48:56;;;;;;;3.07;0.80;;;;;;;8.71;72.37;97578.03;6120318;29;20636;-70
2021/10/22 05:51:58;;;;;;;2.60;0.90;;;;;;;8.62;73.33;97573.47;6136694;29;20646;-72
2021/10/22 05:54:59;;;;;;;2.37;0.80;;;;;;;8.57;73.24;97569.50;6119993;29;20198;-70
2021/10/22 05:58:01;;;;;;;2.40;1.00;;;;;;;8.50;73.22;97577.00;6137288;29;20280;-73
2021/10/22 06:01:03;;;;;;;2.50;0.90;;;;;;;8.62;72.83;97585.78;6136732;29;20223;-71
2021/10/22 06:04:26;;;;;;;2.57;1.03;;;;;;;8.84;72.21;97591.97;6119253;29;20200;-71
2021/10/22 06:07:28;;;;;;;3.77;0.90;;;;;;;9.04;71.53;97601.00;6136784;29;20273;-71
2021/10/22 06:10:31;;;;;;;2.80;0.80;;;;;;;9.14;70.88;97611.69;6136706;28;20476;-72
2021/10/22 06:13:33;;;;;;;1.63;0.70;;;;;;;9.20;70.60;97605.94;6136581;29;20213;-71
2021/10/22 06:16:35;;;;;;;2.80;0.97;;;;;;;9.29;69.94;97626.31;6119166;29;20532;-72
2021/10/22 06:19:40;;;;;;;1.33;1.00;;;;;;;9.34;70.46;97624.19;6100677;29;20204;-73
2021/10/22 06:25:53;;;;;;;2.60;0.77;;;;;;;9.32;70.41;97636.63;6136466;29;20273;-71
2021/10/22 06:28:55;;;;;;;2.43;0.77;;;;;;;9.19;71.40;97655.13;6135980;29;20221;-71
2021/10/22 06:31:57;;;;;;;2.53;0.97;;;;;;;9.10;71.74;97665.50;6136339;29;20197;-72
2021/10/22 06:34:59;;;;;;;0.77;0.53;;;;;;;9.00;72.01;97675.88;6118278;29;20318;-71
2021/10/22 06:38:01;;;;;;;2.30;0.90;;;;;;;8.97;72.51;97680.56;6097423;29;20311;-72
2021/10/22 06:41:07;;;;;;;2.63;0.70;;;;;;;8.95;72.75;97679.81;6116859;29;20214;-71
2021/10/22 06:44:12;;;;;;;1.87;0.93;;;;;;;9.07;72.87;97689.44;6135500;29;20464;-70
2021/10/22 06:47:14;;;;;;;4.20;1.03;;;;;;;9.26;72.04;97692.38;6135742;29;20197;-72
2021/10/22 06:50:17;;;;;;;4.47;1.07;;;;;;;9.50;72.50;97687.06;6118982;29;20197;-72
2021/10/22 06:53:19;;;;;;;2.87;0.70;;;;;;;9.61;71.70;97690.56;6135816;29;20333;-72
2021/10/22 06:56:21;;;;;;;3.47;1.30;;;;;;;9.71;71.83;97689.84;6135664;29;20265;-72
2021/10/22 06:59:23;;;;;;;1.80;0.80;;;;;;;9.77;71.39;97682.34;6135236;29;20222;-73
2021/10/22 07:02:25;;;;;;;2.00;0.77;;;;;;;9.91;71.91;97687.34;6118112;29;20201;-72
2021/10/22 07:08:34;;;;;;;4.33;1.00;;;;;;;10.00;72.24;97701.63;6117831;29;20250;-73
2021/10/22 07:11:37;;;;;;;3.20;1.10;;;;;;;10.19;70.90;97699.25;6117810;29;20211;-71
2021/10/22 07:14:48;;;;;;;2.80;0.80;;;;;;;10.40;70.74;97695.88;6117366;29;20222;-73
2021/10/22 07:17:52;;;;;;;1.97;0.90;;;;;;;10.64;70.29;97713.25;6135530;29;20622;-73
2021/10/22 07:20:54;;;;;;;2.30;0.73;;;;;;;10.81;69.65;97727.72;6118125;29;20252;-71
2021/10/22 07:23:59;;;;;;;3.30;0.93;;;;;;;10.93;68.23;97712.72;6134502;28;20597;-71
2021/10/22 07:27:01;;;;;;;4.00;1.10;;;;;;;10.92;69.00;97705.75;6135220;29;20788;-73
2021/10/22 07:30:04;;;;;;;2.80;0.80;;;;;;;10.83;69.11;97717.91;6135351;29;20605;-72
2021/10/22 07:33:06;;;;;;;3.40;1.27;;;;;;;10.75;68.83;97727.41;6134745;29;20520;-72
2021/10/22 07:36:12;;;;;;;0.80;0.70;;;;;;;10.69;69.02;97724.28;6128137;29;20211;-71
2021/10/22 07:39:15;;;;;;;1.60;0.83;;;;;;;10.70;68.96;97730.38;6128924;29;20201;-73
2021/10/22 07:42:37;;;;;;;3.10;0.87;;;;;;;10.76;68.60;97729.91;6133857;29;20246;-72
2021/10/22 07:45:41;;;;;;;0.90;0.63;;;;;;;10.88;68.43;97734.19;6117941;29;20205;-72
2021/10/22 07:48:45;;;;;;;0.93;0.40;;;;;;;10.95;68.41;97737.19;6117709;29;20429;-72
2021/10/22 07:51:46;;;;;;;3.30;1.00;;;;;;;11.00;67.68;97719.16;6134960;29;20201;-73
2021/10/22 07:54:49;;;;;;;1.43;0.60;;;;;;;11.06;67.68;97722.16;6134807;29;20200;-72
2021/10/22 07:57:52;;;;;;;0.70;0.60;;;;;;;11.24;67.18;97730.38;6101009;29;20210;-73
2021/10/22 08:00:54;;;;;;;0.60;0.60;;;;;;;11.48;66.56;97732.78;6117175;29;20232;-73
2021/10/22 08:03:56;;;;;;;2.60;0.70;;;;;;;11.76;65.55;97728.72;6134780;29;20188;-73
2021/10/22 08:07:00;;;;;;;2.13;0.73;;;;;;;11.98;64.78;97717.97;6134699;29;20195;-73
2021/10/22 08:10:03;;;;;;;1.70;0.37;;;;;;;12.16;64.06;97716.41;6133880;29;20289;-71
2021/10/22 08:13:09;;;;;;;3.33;0.80;;;;;;;12.27;63.61;97722.59;6132794;29;20704;-73
2021/10/22 08:16:16;;;;;;;2.10;0.70;;;;;;;12.44;63.29;97729.91;6121727;29;20708;-73
2021/10/22 08:19:19;;;;;;;0.87;0.50;;;;;;;12.62;62.14;97724.81;6096305;29;20429;-73
2021/10/22 08:22:32;;;;;;;2.10;0.57;;;;;;;12.82;61.58;97735.31;6113060;29;20627;-72
2021/10/22 08:25:34;;;;;;;0.83;0.60;;;;;;;13.04;60.75;97728.13;6133818;29;20291;-73
2021/10/22 08:28:36;;;;;;;1.07;0.50;;;;;;;13.17;60.57;97724.28;6133516;29;20279;-72
2021/10/22 08:31:39;;;;;;;1.03;0.60;;;;;;;13.26;60.10;97735.84;6132085;29;20204;-71
2021/10/22 08:34:42;;;;;;;1.70;0.40;;;;;;;13.22;59.95;97713.25;6116850;29;20223;-71
2021/10/22 08:37:45;;;;;;;0.30;0.30;;;;;;;13.26;60.21;97717.28;6134097;29;20217;-72
2021/10/22 08:40:47;;;;;;;1.23;0.50;;;;;;;13.40;59.17;97731.94;6120629;29;20204;-72
2021/10/22 08:43:52;;;;;;;0.67;0.50;;;;;;;13.40;59.33;97739.88;6120606;29;20201;-71
2021/10/22 08:46:56;;;;;;;0.87;0.43;;;;;;;13.50;58.73;97712.38;6120961;29;20266;-72
2021/10/22 08:50:05;;;;;;;1.30;0.47;;;;;;;13.56;58.96;97706.53;6138490;29;20342;-73
2021/10/22 08:53:07;;;;;;;1.57;0.70;;;;;;;13.76;58.45;97709.16;6138288;29;20353;-71
2021/10/22 08:56:09;;;;;;;2.13;0.60;;;;;;;14.02;58.12;97708.41;6138556;29;20195;-71
2021/10/22 08:59:11;;;;;;;1.63;0.67;;;;;;;14.19;57.70;97703.31;6138245;29;20221;-71
2021/10/22 09:02:25;;;;;;;2.13;0.70;;;;;;;14.09;56.69;97716.63;6138210;29;20193;-73
2021/10/22 09:05:28;;;;;;;0.97;0.50;;;;;;;14.24;56.70;97711.69;6120696;29;20675;-71
2021/10/22 09:08:38;;;;;;;2.00;0.60;;;;;;;14.40;56.09;97706.63;6120391;29;20237;-72
2021/10/22 09:11:47;;;;;;;1.27;0.30;;;;;;;14.63;55.43;97713.22;6138423;29;20194;-73
2021/10/22 09:15:00;;;;;;;0.73;0.50;;;;;;;14.74;54.60;97721.00;6120278;29;20599;-72
2021/10/22 09:18:07;;;;;;;1.43;0.53;;;;;;;14.96;54.52;97709.13;6138371;29;20195;-72
2021/10/22 09:21:09;;;;;;;2.97;0.63;;;;;;;15.16;52.90;97709.84;6101708;29;20217;-71
2021/10/22 09:24:17;;;;;;;0.93;0.50;;;;;;;15.20;52.94;97710.34;6121119;29;20658;-72
2021/10/22 09:27:36;;;;;;;1.20;0.50;;;;;;;15.67;52.54;97725.09;6137896;29;20191;-72
2021/10/22 09:30:45;;;;;;;0.73;0.50;;;;;;;16.12;51.41;97722.28;6120726;29;20328;-71
2021/10/22 09:33:59;;;;;;;0.80;0.40;;;;;;;16.07;51.42;97721.91;6120046;29;20203;-73
2021/10/22 09:37:04;;;;;;;1.57;0.50;;;;;;;16.66;51.00;97719.44;6098604;29;20268;-72
2021/10/22 09:40:07;;;;;;;1.67;0.60;;;;;;;17.02;49.73;97726.25;6124122;29;20392;-72
2021/10/22 09:43:20;;;;;;;0.70;0.47;;;;;;;16.64;49.68;97722.28;6129228;29;20772;-73
2021/10/22 09:46:23;;;;;;;0.97;0.50;;;;;;;16.56;49.77;97730.22;6119364;29;20211;-72
2021/10/22 09:49:27;;;;;;;2.10;0.77;;;;;;;16.25;50.66;97737.84;6119927;29;20201;-72
2021/10/22 09:52:29;;;;;;;0.63;0.40;;;;;;;16.18;51.11;97732.31;6136917;29;20198;-72
2021/10/22 09:55:31;;;;;;;1.43;0.57;;;;;;;15.99;51.04;97752.97;6136512;29;20511;-72
2021/10/22 09:58:34;;;;;;;1.87;0.60;;;;;;;15.72;50.86;97751.28;6136676;29;20394;-72
2021/10/22 10:01:43;;;;;;;1.23;0.50;;;;;;;15.62;52.03;97743.38;6136992;29;20205;-73
2021/10/22 10:04:45;;;;;;;1.80;0.43;;;;;;;15.50;51.67;97737.41;6136574;29;20302;-72
2021/10/22 10:07:47;;;;;;;2.00;0.60;;;;;;;15.48;52.59;97742.03;6136675;29;20246;-72
2021/10/22 10:10:49;;;;;;;1.87;0.60;;;;;;;15.30;53.01;97751.84;6136512;29;20209;-72
2021/10/22 10:13:53;;;;;;;0.73;0.40;;;;;;;15.22;53.45;97751.75;6125347;29;20763;-72
2021/10/22 10:16:57;;;;;;;0.67;0.50;;;;;;;15.09;53.88;97751.28;6119736;29;20202;-71
2021/10/22 10:20:04;;;;;;;0.87;0.40;;;;;;;15.03;53.46;97742.09;6111219;29;20565;-72
2021/10/22 10:23:06;;;;;;;0.63;0.40;;;;;;;15.01;53.46;97749.38;6136741;29;20681;-72
2021/10/22 10:26:23;;;;;;;1.47;0.57;;;;;;;14.87;53.22;97747.22;6136708;29;20198;-72
2021/10/22 10:29:32;;;;;;;2.47;0.70;;;;;;;14.73;54.69;97745.91;6136812;29;20176;-72
2021/10/22 10:32:42;;;;;;;1.63;0.50;;;;;;;14.63;54.82;97746.94;6136038;29;20348;-73
2021/10/22 10:35:45;;;;;;;1.80;0.70;;;;;;;14.51;55.73;97748.09;6132452;29;20204;-72
2021/10/22 10:38:47;;;;;;;0.90;0.37;;;;;;;14.28;54.77;97760.84;6111732;29;20249;-72
2021/10/22 10:41:49;;;;;;;1.67;0.50;;;;;;;14.04;56.12;97756.03;6117638;29;20436;-72
2021/10/22 10:44:53;;;;;;;3.87;0.50;;;;;;;13.83;56.87;97768.63;6118369;29;20198;-72
2021/10/22 10:47:58;;;;;;;1.33;0.60;;;;;;;13.75;56.53;97756.06;6118084;29;20643;-71
2021/10/22 10:51:04;;;;;;;2.83;0.70;;;;;;;13.71;56.88;97759.13;6135699;29;20499;-72
2021/10/22 10:54:06;;;;;;;1.47;0.67;;;;;;;13.73;57.06;97747.41;6135198;29;20564;-71
2021/10/22 10:57:23;;;;;;;0.40;0.40;;;;;;;13.80;56.95;97750.34;6117930;28;20411;-72
2021/10/22 11:00:35;;;;;;;1.47;0.50;;;;;;;13.81;57.11;97752.00;6133633;29;20411;-71
2021/10/22 11:03:46;;;;;;;0.80;0.40;;;;;;;13.81;56.75;97752.84;6135204;29;20596;-72
2021/10/22 11:06:50;;;;;;;0.50;0.40;;;;;;;13.79;57.62;97746.84;6134945;29;20195;-71
2021/10/22 11:09:53;;;;;;;1.50;0.90;;;;;;;13.81;57.75;97744.06;6102159;29;20683;-72
2021/10/22 11:13:42;;;;;;;0.50;0.50;;;;;;;13.85;57.21;97734.84;6135765;29;20278;-71
2021/10/22 11:16:48;;;;;;;0.80;0.50;;;;;;;13.91;57.17;97745.72;6060845;29;20216;-71
2021/10/22 11:19:51;;;;;;;0.67;0.50;;;;;;;13.91;56.67;97745.72;6060246;29;20220;-72
2021/10/22 11:22:55;;;;;;;2.33;0.80;;;;;;;13.83;57.04;97737.63;6060608;29;20662;-71
2021/10/22 11:25:57;;;;;;;0.97;0.50;;;;;;;13.86;56.98;97740.00;6044925;29;20736;-70
2021/10/22 11:29:18;;;;;;;2.37;0.40;;;;;;;13.83;56.34;97739.44;6060600;29;20203;-71
2021/10/22 11:32:25;;;;;;;1.33;0.70;;;;;;;13.76;57.04;97741.00;6060602;29;20396;-73
2021/10/22 11:35:29;;;;;;;1.57;0.60;;;;;;;13.62;57.63;97745.75;6060081;29;20709;-71
2021/10/22 11:38:31;;;;;;;1.13;0.80;;;;;;;13.58;57.10;97739.03;6060456;29;20272;-73
2021/10/22 11:41:34;;;;;;;1.80;0.73;;;;;;;13.37;57.92;97740.19;6060190;29;20199;-73
2021/10/22 11:44:48;;;;;;;1.00;0.47;;;;;;;13.42;57.70;97738.78;6060519;29;20206;-73
2021/10/22 11:47:55;;;;;;;0.90;0.70;;;;;;;13.42;57.33;97744.06;6060392;29;20207;-71
2021/10/22 11:50:59;;;;;;;0.90;0.60;;;;;;;13.39;58.01;97733.75;6045018;29;20686;-72
2021/10/22 11:54:01;;;;;;;1.13;0.70;;;;;;;13.26;58.39;97741.16;6113913;29;20246;-72
2021/10/22 11:57:24;;;;;;;1.73;0.57;;;;;;;13.30;58.59;97735.41;6134029;29;20708;-73
2021/10/22 12:00:26;;;;;;;1.20;0.73;;;;;;;13.33;58.35;97742.25;6117011;29;20222;-71
2021/10/22 12:03:32;;;;;;;0.67;0.60;;;;;;;13.46;58.22;97736.69;6117636;29;20192;-71
2021/10/22 12:06:34;;;;;;;1.57;0.70;;;;;;;13.54;57.70;97715.63;6134138;29;20327;-73
2021/10/22 12:09:39;;;;;;;1.60;0.50;;;;;;;13.47;57.72;97725.94;6117683;29;20262;-72
2021/10/22 12:12:41;;;;;;;1.43;0.70;;;;;;;13.55;58.14;97733.19;6138657;29;20345;-72
2021/10/22 12:15:43;;;;;;;4.33;2.40;;;;;;;13.70;57.44;97733.59;6138959;29;20645;-72
2021/10/22 12:18:55;;;;;;;1.30;0.70;;;;;;;13.77;56.31;97724.09;6134719;29;20195;-72
2021/10/22 12:21:57;;;;;;;2.83;0.80;;;;;;;13.70;56.51;97731.78;6129165;29;20201;-72
2021/10/22 12:25:13;;;;;;;1.27;0.70;;;;;;;13.79;56.66;97748.66;6138649;29;20279;-73
2021/10/22 12:28:16;;;;;;;2.30;1.00;;;;;;;13.34;56.70;97751.91;6139113;29;20190;-70
2021/10/22 12:31:28;;;;;;;1.43;0.70;;;;;;;12.92;57.80;97735.34;6138806;29;20675;-72
2021/10/22 12:34:32;;;;;;;0.90;0.60;;;;;;;12.79;58.83;97747.97;6120025;29;20210;-72
2021/10/22 12:37:39;;;;;;;1.90;0.97;;;;;;;12.76;59.14;97765.00;6092145;29;20199;-73
2021/10/22 12:40:50;;;;;;;0.50;0.50;;;;;;;12.83;58.47;97749.41;6093974;29;20237;-72
2021/10/22 12:44:12;;;;;;;2.03;0.80;;;;;;;12.94;58.21;97736.03;6111073;29;20289;-73
2021/10/22 12:47:14;;;;;;;0.77;0.53;;;;;;;12.92;58.18;97741.47;6104729;29;20669;-72
2021/10/22 12:50:26;;;;;;;1.40;0.70;;;;;;;12.98;57.77;97748.03;6093926;29;20327;-72
2021/10/22 12:53:33;;;;;;;0.63;0.47;;;;;;;13.04;58.49;97744.00;6101129;29;20281;-71
2021/10/22 12:56:36;;;;;;;0.43;0.40;;;;;;;13.61;56.90;97744.06;6112472;29;20638;-72
2021/10/22 12:59:39;;;;;;;0.63;0.50;;;;;;;14.01;55.76;97738.56;6134129;29;20224;-71
2021/10/22 13:02:41;;;;;;;1.13;0.67;;;;;;;14.09;55.56;97737.00;6145057;29;20203;-72
2021/10/22 13:05:43;;;;;;;1.60;0.57;;;;;;;14.01;55.28;97749.19;6123639;29;20443;-71
2021/10/22 13:13:00;;;;;;;0.70;0.60;;;;;;;13.18;56.50;97749.75;6103953;29;20198;-73
2021/10/22 13:22:03;;;;;;;1.07;0.50;;;;;;;13.05;56.61;97743.03;6113990;29;20219;-71
2021/10/22 13:25:05;;;;;;;0.63;0.50;;;;;;;13.06;56.64;97752.66;6121332;29;20200;-71
2021/10/22 13:28:08;;;;;;;1.07;0.60;;;;;;;12.95;56.36;97740.38;6123672;29;20202;-72
2021/10/22 13:31:11;;;;;;;0.40;0.40;;;;;;;12.73;56.61;97733.47;6102297;29;20214;-72
2021/10/22 13:34:13;;;;;;;1.33;0.50;;;;;;;12.61;57.05;97728.41;6123303;29;20339;-71
2021/10/22 13:37:15;;;;;;;1.30;0.60;;;;;;;12.48;57.29;97737.44;6119400;29;20202;-70
2021/10/22 13:40:18;;;;;;;0.83;0.50;;;;;;;12.57;57.36;97726.06;6120058;29;20202;-71
2021/10/22 13:43:20;;;;;;;1.17;0.40;;;;;;;12.67;56.88;97725.25;6123167;29;20204;-70
2021/10/22 13:46:22;;;;;;;1.27;0.60;;;;;;;12.59;57.15;97723.25;6118909;29;20268;-72
2021/10/22 13:49:24;;;;;;;1.03;0.30;;;;;;;12.36;57.91;97727.94;6104798;29;20509;-71
2021/10/22 13:52:26;;;;;;;0.50;0.43;;;;;;;12.29;58.06;97729.41;6122148;29;20214;-71
2021/10/22 13:55:28;;;;;;;1.87;0.60;;;;;;;12.36;57.92;97727.94;6136233;28;20225;-70
2021/10/22 13:58:31;;;;;;;0.70;0.40;;;;;;;12.32;58.36;97734.44;6138757;29;20202;-72
2021/10/22 14:01:34;;;;;;;0.93;0.47;;;;;;;12.26;57.88;97721.75;6123343;29;20225;-70
2021/10/22 14:04:37;;;;;;;0.60;0.30;;;;;;;12.17;58.36;97727.84;6138880;28;20238;-71
2021/10/22 14:07:39;;;;;;;2.10;0.50;;;;;;;12.07;58.42;97721.66;6141254;28;20652;-71
2021/10/22 14:10:44;;;;;;;1.57;0.50;;;;;;;12.04;58.47;97724.56;6140038;28;20699;-72
2021/10/22 14:13:54;;;;;;;1.10;0.50;;;;;;;12.02;58.51;97732.63;6137039;29;20409;-70
2021/10/22 14:30:09;;;;;;;2.10;0.47;;;;;;;12.24;57.71;97720.19;6370288;23;20240;-72
2021/10/22 14:33:12;;;;;;;1.77;0.40;;;;;;;12.22;57.10;97715.03;6200336;28;20225;-72
2021/10/22 14:36:14;;;;;;;1.33;0.40;;;;;;;12.18;56.95;97711.81;6211748;28;20206;-72
2021/10/22 14:39:23;;;;;;;0.30;0.30;;;;;;;12.10;57.33;97702.88;6208156;28;20190;-72
2021/10/22 14:42:29;;;;;;;1.03;0.57;;;;;;;12.07;57.10;97698.69;6194118;28;20314;-72
2021/10/22 14:48:44;;;;;;;0.40;0.40;;;;;;;12.06;58.12;97714.69;6198483;28;20664;-72
2021/10/22 14:55:09;;;;;;;0.97;0.47;;;;;;;12.03;58.02;97701.72;6193836;28;20432;-71
2021/10/22 14:58:11;;;;;;;1.87;0.40;;;;;;;11.91;57.88;97700.97;6203264;28;20249;-72
2021/10/22 15:01:14;;;;;;;0.30;0.30;;;;;;;11.87;58.36;97709.31;6199917;28;20202;-72
2021/10/22 15:04:17;;;;;;;0.77;0.30;;;;;;;11.82;58.66;97701.75;6200938;28;20197;-72
2021/10/22 15:07:22;;;;;;;0.63;0.50;;;;;;;11.67;58.73;97703.03;6204348;28;20196;-72
2021/10/22 15:10:24;;;;;;;0.47;0.47;;;;;;;11.60;58.18;97705.31;6183065;28;20218;-72